createdAt,value
2019-04-30T00:01:43.098Z,40.00
2019-04-30T00:04:15.646Z,41.20
2019-04-30T00:06:45.497Z,43.53
2019-04-30T00:09:19.067Z,39.50
2019-04-30T00:11:50.679Z,40.17
2019-04-30T00:14:18.760Z,40.67
2019-04-30T00:16:48.245Z,36.40
2019-04-30T00:19:19.665Z,40.70
2019-04-30T00:21:57.061Z,40.63
2019-04-30T00:24:21.065Z,38.40
2019-04-30T00:26:52.535Z,38.80
2019-04-30T00:29:26.849Z,40.23
2019-04-30T00:31:52.306Z,36.30
2019-04-30T00:34:21.769Z,37.93
2019-04-30T00:36:51.321Z,42.23
2019-04-30T00:39:20.880Z,39.93
2019-04-30T00:41:50.446Z,40.33
2019-04-30T00:44:23.855Z,37.47
2019-04-30T00:46:50.707Z,35.53
2019-04-30T00:49:23.397Z,39.43
2019-04-30T00:51:54.726Z,41.60
2019-04-30T00:54:26.718Z,41.10
2019-04-30T00:56:57.502Z,39.73
2019-04-30T00:59:25.016Z,40.43
2019-04-30T01:01:59.182Z,50.70
2019-04-30T01:04:30.336Z,38.10
2019-04-30T01:07:00.316Z,41.17
2019-04-30T01:09:31.039Z,42.80
2019-04-30T01:12:00.312Z,41.00
2019-04-30T01:14:31.978Z,40.07
2019-04-30T01:17:03.870Z,40.50
2019-04-30T01:19:32.854Z,39.27
2019-04-30T01:22:02.417Z,47.63
2019-04-30T01:24:32.820Z,46.90
2019-04-30T01:27:06.873Z,46.40
2019-04-30T01:29:41.465Z,51.57
2019-04-30T01:32:12.231Z,52.00
2019-04-30T01:34:39.517Z,50.83
2019-04-30T01:37:08.793Z,50.40
2019-04-30T01:39:39.408Z,48.50
2019-04-30T01:42:11.405Z,46.23
2019-04-30T01:44:43.513Z,47.13
2019-04-30T01:47:10.973Z,50.87
2019-04-30T01:49:42.910Z,54.50
2019-04-30T01:52:11.253Z,50.97
2019-04-30T01:54:40.818Z,53.77
2019-04-30T01:57:20.571Z,58.10
2019-04-30T02:00:06.821Z,58.07
2019-04-30T02:02:39.446Z,57.53
2019-04-30T02:05:08.997Z,50.13
2019-04-30T02:07:40.353Z,58.77
2019-04-30T02:10:10.972Z,55.10
2019-04-30T02:12:40.258Z,57.50
2019-04-30T02:15:09.638Z,54.40
2019-04-30T02:17:38.982Z,57.57
2019-04-30T02:20:08.958Z,58.43
2019-04-30T02:22:38.957Z,58.67
2019-04-30T02:25:09.730Z,53.23
2019-04-30T02:27:39.151Z,53.60
2019-04-30T02:30:11.067Z,57.90
2019-04-30T02:32:39.740Z,63.07
2019-04-30T02:35:13.750Z,60.03
2019-04-30T02:38:01.105Z,58.20
2019-04-30T02:40:32.319Z,59.03
2019-04-30T02:43:02.666Z,53.83
2019-04-30T02:45:33.299Z,59.70
2019-04-30T02:48:03.522Z,66.40
2019-04-30T02:50:35.506Z,59.67
2019-04-30T02:53:09.729Z,61.20
2019-04-30T02:55:45.218Z,56.03
2019-04-30T02:58:14.504Z,57.83
2019-04-30T03:00:43.782Z,61.73
2019-04-30T03:03:13.066Z,60.20
2019-04-30T03:05:42.582Z,56.80
2019-04-30T03:08:11.870Z,59.50
2019-04-30T03:10:41.458Z,56.87
2019-04-30T03:13:10.747Z,60.57
2019-04-30T03:15:40.029Z,58.13
2019-04-30T03:18:10.954Z,58.10
2019-04-30T03:20:41.884Z,58.20
2019-04-30T03:23:11.162Z,60.53
2019-04-30T03:25:40.742Z,60.60
2019-04-30T03:28:10.044Z,57.07
2019-04-30T03:30:41.826Z,63.70
2019-04-30T03:33:12.735Z,59.40
2019-04-30T03:35:47.461Z,63.70
2019-04-30T03:38:12.597Z,57.40
2019-04-30T03:40:41.887Z,58.73
2019-04-30T03:43:11.173Z,67.77
2019-04-30T03:45:40.458Z,65.43
2019-04-30T03:48:10.269Z,63.80
2019-04-30T03:50:50.182Z,60.90
2019-04-30T03:53:11.951Z,56.63
2019-04-30T03:55:41.231Z,62.40
2019-04-30T03:58:10.775Z,67.13
2019-04-30T04:00:42.483Z,56.93
2019-04-30T04:03:12.088Z,60.20
2019-04-30T04:05:43.013Z,66.87
2019-04-30T04:08:13.946Z,66.77
2019-04-30T04:10:45.163Z,60.07
2019-04-30T04:13:14.465Z,62.57
2019-04-30T04:15:43.750Z,59.10
2019-04-30T04:18:13.069Z,59.50
2019-04-30T04:20:43.030Z,59.13
2019-04-30T04:23:12.332Z,59.70
2019-04-30T04:25:41.624Z,56.50
2019-04-30T04:28:10.902Z,65.63
2019-04-30T04:30:42.962Z,62.40
2019-04-30T04:33:11.167Z,61.63
2019-04-30T04:35:41.417Z,63.07
2019-04-30T04:38:12.709Z,64.03
2019-04-30T04:40:41.682Z,60.83
2019-04-30T04:43:11.237Z,62.87
2019-04-30T04:45:43.811Z,62.67
2019-04-30T04:48:11.504Z,59.67
2019-04-30T04:50:40.793Z,56.90
2019-04-30T04:53:11.592Z,65.97
2019-04-30T04:55:42.214Z,61.00
2019-04-30T04:58:12.845Z,59.73
2019-04-30T05:00:42.478Z,62.80
2019-04-30T05:03:13.389Z,58.63
2019-04-30T05:05:42.674Z,51.07
2019-04-30T05:08:12.291Z,55.87
2019-04-30T05:10:41.576Z,60.53
2019-04-30T05:13:10.858Z,55.07
2019-04-30T05:15:40.144Z,57.00
2019-04-30T05:18:09.429Z,64.37
2019-04-30T05:20:41.536Z,60.70
2019-04-30T05:23:10.076Z,52.97
2019-04-30T05:25:39.378Z,58.90
2019-04-30T05:28:08.784Z,55.73
2019-04-30T05:30:39.304Z,56.37
2019-04-30T05:33:09.089Z,54.00
2019-04-30T05:35:38.856Z,54.53
2019-04-30T05:38:09.283Z,58.07
2019-04-30T05:40:39.798Z,55.53
2019-04-30T05:43:11.330Z,51.20
2019-04-30T05:45:40.809Z,56.17
2019-04-30T05:48:10.136Z,51.90
2019-04-30T05:50:39.725Z,60.20
2019-04-30T05:53:09.139Z,55.57
2019-04-30T05:55:39.486Z,55.57
2019-04-30T05:58:09.479Z,57.90
2019-04-30T06:00:39.946Z,53.87
2019-04-30T06:03:09.673Z,58.33
2019-04-30T06:05:39.463Z,56.60
2019-04-30T06:08:11.494Z,64.30
2019-04-30T06:10:42.728Z,57.70
2019-04-30T06:13:14.729Z,56.40
2019-04-30T06:15:54.565Z,61.67
2019-04-30T06:18:23.857Z,52.00
2019-04-30T06:20:53.453Z,53.10
2019-04-30T06:23:24.080Z,55.33
2019-04-30T06:25:59.355Z,49.77
2019-04-30T06:28:25.146Z,55.83
2019-04-30T06:30:54.760Z,44.90
2019-04-30T06:33:24.051Z,53.57
2019-04-30T06:35:53.670Z,46.90
2019-04-30T06:38:22.960Z,54.17
2019-04-30T06:40:52.573Z,48.27
2019-04-30T06:43:22.309Z,49.07
2019-04-30T06:45:52.193Z,47.40
2019-04-30T06:48:22.030Z,53.57
2019-04-30T06:50:51.313Z,49.00
2019-04-30T06:53:20.593Z,50.27
2019-04-30T06:55:50.121Z,53.00
2019-04-30T06:58:20.574Z,52.30
2019-04-30T07:00:50.081Z,45.73
2019-04-30T07:03:19.370Z,46.13
2019-04-30T07:05:48.994Z,49.43
2019-04-30T07:08:42.473Z,48.10
2019-04-30T07:11:23.526Z,47.30
2019-04-30T07:13:53.417Z,45.17
2019-04-30T07:16:22.701Z,39.77
2019-04-30T07:18:52.153Z,44.67
2019-04-30T07:21:21.438Z,46.60
2019-04-30T07:23:50.714Z,39.10
2019-04-30T07:26:24.309Z,39.23
2019-04-30T07:28:54.897Z,44.37
2019-04-30T07:31:22.003Z,44.77
2019-04-30T07:33:53.760Z,45.90
2019-04-30T07:36:22.672Z,40.40
2019-04-30T07:38:56.399Z,42.33
2019-04-30T07:41:24.059Z,40.73
2019-04-30T07:43:53.337Z,37.40
2019-04-30T07:46:22.852Z,34.37
2019-04-30T07:48:52.438Z,38.10
2019-04-30T07:51:22.455Z,42.73
2019-04-30T07:53:52.392Z,39.50
2019-04-30T07:56:27.971Z,41.93
2019-04-30T07:58:52.666Z,35.13
2019-04-30T08:01:22.042Z,42.50
2019-04-30T08:04:11.269Z,36.40
2019-04-30T08:06:40.729Z,33.73
2019-04-30T08:09:10.859Z,28.63
2019-04-30T08:11:43.511Z,29.23
2019-04-30T08:14:11.129Z,35.40
2019-04-30T08:16:40.420Z,31.60
2019-04-30T08:19:10.061Z,32.63
2019-04-30T08:21:39.358Z,34.10
2019-04-30T08:24:09.249Z,30.23
2019-04-30T08:26:39.746Z,31.10
2019-04-30T08:29:09.671Z,34.53
2019-04-30T08:31:40.830Z,29.97
2019-04-30T08:34:10.955Z,33.13
2019-04-30T08:36:40.493Z,36.73
2019-04-30T08:39:09.841Z,31.47
2019-04-30T08:41:39.299Z,35.90
2019-04-30T08:44:09.725Z,33.30
2019-04-30T08:46:39.012Z,30.53
2019-04-30T08:49:09.664Z,32.83
2019-04-30T08:51:40.429Z,32.80
2019-04-30T08:54:10.201Z,28.20
2019-04-30T08:56:39.481Z,26.37
2019-04-30T08:59:11.097Z,26.93
2019-04-30T09:01:39.804Z,28.30
2019-04-30T09:04:10.464Z,27.37
2019-04-30T09:06:40.156Z,23.90
2019-04-30T09:09:12.262Z,26.13
2019-04-30T09:11:51.953Z,27.50
2019-04-30T09:14:12.530Z,25.20
2019-04-30T09:16:41.860Z,21.57
2019-04-30T09:19:12.790Z,29.00
2019-04-30T09:21:42.069Z,26.10
2019-04-30T09:24:11.750Z,31.67
2019-04-30T09:26:41.029Z,26.93
2019-04-30T09:29:10.557Z,26.00
2019-04-30T09:31:41.030Z,29.57
2019-04-30T09:34:17.480Z,26.03
2019-04-30T09:36:41.593Z,31.03
2019-04-30T09:39:10.883Z,27.37
2019-04-30T09:41:41.142Z,28.30
2019-04-30T09:44:10.598Z,24.77
2019-04-30T09:46:39.873Z,35.33
2019-04-30T09:49:09.671Z,26.00
2019-04-30T09:51:39.827Z,26.93
2019-04-30T09:54:12.398Z,23.70
2019-04-30T09:56:40.893Z,22.57
2019-04-30T09:59:10.177Z,26.17
2019-04-30T10:01:39.634Z,24.53
2019-04-30T10:04:10.348Z,22.70
2019-04-30T10:06:40.458Z,19.57
2019-04-30T10:09:11.976Z,20.97
2019-04-30T10:11:43.214Z,20.83
2019-04-30T10:14:12.492Z,18.00
2019-04-30T10:16:52.365Z,17.50
2019-04-30T10:19:21.663Z,24.43
2019-04-30T10:21:51.005Z,20.20
2019-04-30T10:24:20.297Z,18.97
2019-04-30T10:26:49.806Z,15.00
2019-04-30T10:29:21.423Z,16.70
2019-04-30T10:31:51.274Z,19.40
2019-04-30T10:34:20.551Z,15.97
2019-04-30T10:36:49.833Z,16.40
2019-04-30T10:39:21.795Z,16.73
2019-04-30T10:41:50.685Z,18.03
2019-04-30T10:44:19.981Z,15.17
2019-04-30T10:46:49.263Z,18.73
2019-04-30T10:49:19.324Z,16.03
2019-04-30T10:51:49.329Z,16.33
2019-04-30T10:54:26.167Z,13.00
2019-04-30T10:56:51.390Z,14.30
2019-04-30T10:59:21.835Z,12.93
2019-04-30T11:01:51.121Z,12.03
2019-04-30T11:04:20.397Z,12.73
2019-04-30T11:06:49.689Z,14.70
2019-04-30T11:09:19.032Z,15.10
2019-04-30T11:11:49.726Z,16.10
2019-04-30T11:14:20.179Z,15.40
2019-04-30T11:16:51.752Z,14.97
2019-04-30T11:19:21.873Z,15.57
2019-04-30T11:21:51.437Z,11.50
2019-04-30T11:24:21.081Z,10.13
2019-04-30T11:26:51.185Z,10.97
2019-04-30T11:29:23.018Z,10.93
2019-04-30T11:32:03.169Z,12.27
2019-04-30T11:34:32.943Z,9.87
2019-04-30T11:37:02.553Z,14.80
2019-04-30T11:39:31.844Z,12.70
2019-04-30T11:42:01.199Z,10.53
2019-04-30T11:44:31.598Z,12.30
2019-04-30T11:47:05.061Z,10.63
2019-04-30T11:49:34.345Z,16.67
2019-04-30T11:52:03.886Z,11.70
2019-04-30T11:54:33.169Z,11.70
2019-04-30T11:57:02.463Z,13.10
2019-04-30T11:59:31.733Z,13.33
2019-04-30T12:02:02.649Z,11.83
2019-04-30T12:04:31.933Z,13.17
2019-04-30T12:07:02.859Z,12.40
2019-04-30T12:09:41.041Z,13.93
2019-04-30T12:12:10.399Z,12.77
2019-04-30T12:14:39.683Z,14.13
2019-04-30T12:17:08.957Z,12.87
2019-04-30T12:19:38.847Z,13.33
2019-04-30T12:22:08.293Z,15.20
2019-04-30T12:24:38.934Z,14.37
2019-04-30T12:27:08.317Z,14.73
2019-04-30T12:29:39.630Z,15.03
2019-04-30T12:32:08.574Z,18.23
2019-04-30T12:34:37.859Z,17.00
2019-04-30T12:37:10.560Z,17.77
2019-04-30T12:39:39.468Z,14.13
2019-04-30T12:42:09.153Z,15.90
2019-04-30T12:44:40.112Z,15.00
2019-04-30T12:47:09.721Z,17.43
2019-04-30T12:49:46.643Z,16.47
2019-04-30T12:52:23.510Z,16.27
2019-04-30T12:54:57.882Z,18.33
2019-04-30T12:57:31.711Z,15.70
2019-04-30T13:00:00.995Z,17.90
2019-04-30T13:02:30.593Z,15.40
2019-04-30T13:05:00.552Z,14.70
2019-04-30T13:07:30.865Z,13.90
2019-04-30T13:10:03.506Z,17.40
2019-04-30T13:12:33.574Z,17.70
2019-04-30T13:15:03.366Z,15.70
2019-04-30T13:17:32.641Z,16.57
2019-04-30T13:20:01.933Z,16.03
2019-04-30T13:22:32.300Z,23.70
2019-04-30T13:25:01.637Z,21.03
2019-04-30T13:27:32.666Z,20.73
2019-04-30T13:30:04.317Z,19.27
2019-04-30T13:32:35.411Z,18.90
2019-04-30T13:35:06.629Z,21.77
2019-04-30T13:37:38.975Z,18.77
2019-04-30T13:40:28.560Z,19.43
2019-04-30T13:42:59.873Z,16.77
2019-04-30T13:45:29.466Z,18.70
2019-04-30T13:47:58.946Z,17.43
2019-04-30T13:50:29.235Z,16.90
2019-04-30T13:52:58.853Z,16.07
2019-04-30T13:55:30.468Z,17.87
2019-04-30T13:57:59.652Z,21.60
2019-04-30T14:00:30.303Z,18.67
2019-04-30T14:03:19.205Z,19.90
2019-04-30T14:05:49.159Z,20.07
2019-04-30T14:08:21.580Z,19.03
2019-04-30T14:10:50.868Z,16.73
2019-04-30T14:13:20.617Z,16.77
2019-04-30T14:15:49.901Z,15.00
2019-04-30T14:18:28.557Z,15.03
2019-04-30T14:20:50.506Z,17.53
2019-04-30T14:23:19.794Z,17.30
2019-04-30T14:25:56.461Z,18.90
2019-04-30T14:28:20.347Z,16.37
2019-04-30T14:30:49.637Z,20.70
2019-04-30T14:33:26.291Z,18.97
2019-04-30T14:35:50.240Z,16.30
2019-04-30T14:38:19.589Z,18.33
2019-04-30T14:40:51.010Z,15.73
2019-04-30T14:43:30.765Z,17.53
2019-04-30T14:49:24.694Z,14.23
2019-04-30T14:51:54.572Z,13.60
2019-04-30T14:54:35.074Z,13.10
2019-04-30T14:57:15.077Z,15.77
2019-04-30T14:59:45.997Z,13.60
2019-04-30T15:02:32.613Z,16.37
2019-04-30T15:05:02.295Z,13.50
2019-04-30T15:07:31.750Z,18.30
2019-04-30T15:10:01.113Z,15.97
2019-04-30T15:12:30.473Z,15.57
2019-04-30T15:14:59.756Z,16.37
2019-04-30T15:17:29.070Z,15.67
2019-04-30T15:19:58.866Z,15.77
2019-04-30T15:22:29.044Z,16.83
2019-04-30T15:24:59.181Z,17.50
2019-04-30T15:27:29.025Z,15.60
2019-04-30T15:29:59.692Z,13.83
2019-04-30T15:32:28.981Z,15.80
2019-04-30T15:34:58.993Z,16.17
2019-04-30T15:37:28.764Z,14.70
2019-04-30T15:39:59.114Z,17.10
2019-04-30T15:42:29.067Z,16.53
2019-04-30T15:44:59.541Z,16.07
2019-04-30T15:47:28.993Z,15.63
2019-04-30T15:50:02.144Z,17.57
2019-04-30T15:52:30.333Z,14.90
2019-04-30T15:54:59.875Z,13.77
2019-04-30T15:57:29.587Z,14.60
2019-04-30T15:59:58.923Z,15.73
2019-04-30T16:02:33.059Z,14.87
2019-04-30T16:05:04.457Z,15.67
2019-04-30T16:07:35.373Z,13.83
2019-04-30T16:10:14.525Z,17.30
2019-04-30T16:12:45.770Z,14.33
2019-04-30T16:15:15.149Z,13.70
2019-04-30T16:17:49.443Z,15.40
2019-04-30T16:20:18.778Z,15.30
2019-04-30T16:22:49.346Z,14.73
2019-04-30T16:25:19.393Z,11.70
2019-04-30T16:27:49.851Z,14.07
2019-04-30T16:30:19.640Z,15.43
2019-04-30T16:32:50.705Z,14.10
2019-04-30T16:35:20.229Z,15.40
2019-04-30T16:37:49.691Z,11.43
2019-04-30T16:40:19.176Z,12.43
2019-04-30T16:42:49.043Z,12.90
2019-04-30T16:45:19.578Z,14.40
2019-04-30T16:47:48.998Z,14.50
2019-04-30T16:50:18.866Z,14.00
2019-04-30T16:52:49.809Z,14.67
2019-04-30T16:55:19.161Z,14.90
2019-04-30T16:57:50.154Z,13.63
2019-04-30T17:00:20.253Z,11.03
2019-04-30T17:02:51.236Z,13.60
2019-04-30T17:05:22.809Z,12.43
2019-04-30T17:08:11.330Z,15.73
2019-04-30T17:10:45.372Z,13.17
2019-04-30T17:13:19.349Z,18.27
2019-04-30T17:15:50.268Z,14.30
2019-04-30T17:18:19.549Z,15.50
2019-04-30T17:20:49.310Z,13.43
2019-04-30T17:23:19.334Z,11.47
2019-04-30T17:25:48.833Z,13.07
2019-04-30T17:28:18.897Z,26.97
2019-04-30T17:30:49.178Z,28.87
2019-04-30T17:33:19.106Z,34.93
2019-04-30T17:35:49.891Z,33.30
2019-04-30T17:38:24.296Z,32.37
2019-04-30T17:40:53.857Z,32.20
2019-04-30T17:43:24.600Z,30.13
2019-04-30T17:45:54.096Z,28.30
2019-04-30T17:48:23.713Z,33.77
2019-04-30T17:50:53.009Z,32.40
2019-04-30T17:53:23.579Z,33.07
2019-04-30T17:55:52.885Z,33.87
2019-04-30T17:58:22.169Z,35.20
2019-04-30T18:00:53.389Z,32.33
2019-04-30T18:03:22.677Z,32.70
2019-04-30T18:05:52.030Z,32.73
2019-04-30T18:08:21.424Z,37.47
2019-04-30T18:10:50.769Z,33.50
2019-04-30T18:13:20.069Z,34.20
2019-04-30T18:15:49.648Z,33.30
2019-04-30T18:18:26.262Z,35.07
2019-04-30T18:21:06.100Z,33.97
2019-04-30T18:23:45.769Z,33.47
2019-04-30T18:26:17.117Z,36.63
2019-04-30T18:28:46.731Z,35.97
2019-04-30T18:31:16.024Z,36.07
2019-04-30T18:33:45.665Z,32.33
2019-04-30T18:36:14.947Z,37.77
2019-04-30T18:38:44.249Z,34.63
2019-04-30T18:41:13.598Z,33.57
2019-04-30T18:43:43.158Z,33.53
2019-04-30T18:46:12.509Z,37.27
2019-04-30T18:48:41.794Z,36.27
2019-04-30T18:51:23.955Z,35.03
2019-04-30T18:53:42.309Z,38.23
2019-04-30T18:56:14.618Z,35.33
2019-04-30T18:58:43.324Z,35.80
2019-04-30T19:01:12.683Z,34.53
2019-04-30T19:03:42.322Z,36.80
2019-04-30T19:06:23.672Z,35.00
2019-04-30T19:08:49.436Z,32.53
2019-04-30T19:11:29.457Z,43.20
2019-04-30T19:14:00.381Z,43.13
2019-04-30T19:16:31.651Z,39.83
2019-04-30T19:19:02.770Z,34.30
2019-04-30T19:21:32.177Z,36.80
2019-04-30T19:24:01.545Z,37.93
2019-04-30T19:26:30.829Z,42.50
2019-04-30T19:29:00.361Z,34.80
2019-04-30T19:31:29.694Z,35.90
2019-04-30T19:33:59.011Z,35.17
2019-04-30T19:36:37.286Z,37.80
2019-04-30T19:38:59.754Z,33.47
2019-04-30T19:41:29.246Z,36.27
2019-04-30T19:43:58.530Z,40.17
2019-04-30T19:46:29.420Z,36.93
2019-04-30T19:48:58.885Z,38.33
2019-04-30T19:51:29.655Z,36.13
2019-04-30T19:53:59.865Z,38.10
2019-04-30T19:56:30.434Z,40.90
2019-04-30T19:59:05.273Z,36.20
2019-04-30T20:01:33.542Z,37.47
2019-04-30T20:04:02.826Z,39.13
2019-04-30T20:06:32.110Z,36.77
2019-04-30T20:09:01.621Z,35.60
2019-04-30T20:11:32.753Z,43.03
2019-04-30T20:14:02.033Z,40.77
2019-04-30T20:16:31.325Z,40.13
2019-04-30T20:19:00.611Z,36.93
2019-04-30T20:21:45.702Z,42.33
2019-04-30T20:24:01.602Z,46.37
2019-04-30T20:26:31.857Z,37.83
2019-04-30T20:29:01.138Z,41.77
2019-04-30T20:31:30.421Z,38.43
2019-04-30T20:34:01.470Z,39.90
2019-04-30T20:36:30.893Z,44.37
2019-04-30T20:39:01.805Z,43.13
2019-04-30T20:41:33.378Z,39.20
2019-04-30T20:44:03.862Z,38.90
2019-04-30T20:46:35.277Z,40.43
2019-04-30T20:49:04.417Z,39.60
2019-04-30T20:51:33.722Z,37.57
2019-04-30T20:54:03.002Z,40.20
2019-04-30T20:56:32.293Z,42.00
2019-04-30T20:59:05.387Z,39.30
2019-04-30T21:01:32.782Z,41.30
2019-04-30T21:04:02.305Z,40.13
2019-04-30T21:06:31.824Z,42.63
2019-04-30T21:09:01.114Z,39.67
2019-04-30T21:11:32.010Z,39.70
2019-04-30T21:14:01.294Z,43.70
2019-04-30T21:16:30.575Z,39.97
2019-04-30T21:18:59.854Z,37.97
2019-04-30T21:21:29.133Z,37.10
2019-04-30T21:23:58.648Z,45.33
2019-04-30T21:26:27.997Z,41.23
2019-04-30T21:29:10.444Z,40.40
2019-04-30T21:31:29.962Z,40.50
2019-04-30T21:34:19.612Z,39.30
2019-04-30T21:36:49.637Z,41.90
2019-04-30T21:39:20.153Z,41.73
2019-04-30T21:41:49.542Z,39.20
2019-04-30T21:44:18.855Z,42.03
2019-04-30T21:46:48.207Z,41.90
2019-04-30T21:49:17.872Z,38.37
2019-04-30T21:51:47.440Z,42.33
2019-04-30T21:54:17.021Z,40.03
2019-04-30T21:56:46.298Z,38.43
2019-04-30T21:59:24.083Z,41.27
2019-04-30T22:01:46.849Z,48.80
2019-04-30T22:04:16.311Z,41.07
2019-04-30T22:06:45.926Z,38.73
2019-04-30T22:09:15.629Z,42.57
2019-04-30T22:11:46.109Z,39.50
2019-04-30T22:14:16.114Z,36.77
2019-04-30T22:16:45.485Z,39.10
2019-04-30T22:19:15.061Z,43.57
2019-04-30T22:21:44.345Z,36.40
2019-04-30T22:24:13.630Z,42.13
2019-04-30T22:26:42.905Z,38.87
2019-04-30T22:29:12.193Z,43.90
2019-04-30T22:31:41.468Z,39.53
2019-04-30T22:34:10.757Z,42.70
2019-04-30T22:36:41.675Z,37.60
2019-04-30T22:39:21.660Z,39.97
2019-04-30T22:41:51.238Z,43.63
2019-04-30T22:44:20.524Z,44.47
2019-04-30T22:46:49.810Z,40.37
2019-04-30T22:49:19.086Z,42.20
2019-04-30T22:51:48.607Z,38.53
2019-04-30T22:54:18.108Z,34.83
2019-04-30T22:56:47.401Z,38.40
2019-04-30T22:59:16.685Z,44.60
2019-04-30T23:01:56.737Z,45.20
2019-04-30T23:04:33.757Z,43.60
2019-04-30T23:07:03.273Z,45.53
2019-04-30T23:09:32.552Z,44.00
2019-04-30T23:12:03.141Z,45.07
2019-04-30T23:14:33.525Z,41.90
2019-04-30T23:17:02.881Z,45.80
2019-04-30T23:19:32.153Z,42.10
2019-04-30T23:22:01.609Z,41.80
2019-04-30T23:24:31.857Z,38.77
2019-04-30T23:27:01.140Z,43.43
2019-04-30T23:29:30.416Z,45.73
2019-04-30T23:31:59.701Z,54.60
2019-04-30T23:34:28.981Z,44.97
2019-04-30T23:36:58.270Z,51.67
2019-04-30T23:39:27.549Z,44.37
2019-04-30T23:41:56.869Z,41.10
2019-04-30T23:44:26.374Z,48.27
2019-04-30T23:46:55.940Z,43.20
2019-04-30T23:49:25.458Z,41.90
2019-04-30T23:51:54.753Z,39.27
2019-04-30T23:54:24.040Z,41.77
2019-04-30T23:56:53.321Z,40.90
2019-04-30T23:59:22.857Z,45.10
